Hoyt Lakes, Minnesota
Current Conditions -  °F | °C
As of 12:31 AM on Monday 26 Jan 2015 (Local Time) from KEVM Reporting Station
Broken Clouds Broken Clouds  
Wind Chill: 12°   Ceiling: 2200
Heat Index: 21°   Visibility: 10mi
Dew Point: 14°   Wind: 8mph
Humidity: 74%   Direction: 170°S
Pressure: 29.8"   Gusts: NA
Location:  47.52°N, 92.14°W
Report Text: KEVM 260631Z AUTO 17007KT 10SM BKN022 M06/M10 A2980 RMK AO2
Loading
Personal Weather Stations






























Interactive Weather Map New forecast layout! Learn more

10-Day Weather Forecast

Advertisements
Track Severe Weather on mobile